Airport View

Enter AWOS ICAO identifier for current METAR.

ex. KFNL

KPLN 181154Z AUTO 13011G21KT 3SM -SN BR FEW010 BKN015 OVC035 M04/M06 A2999 RMK AO2 PRESFR SLP168 P0001 60002 70002 T10391061 11039 21061 56024

18 Jan 2020 12:15

Frequency: 119.025

Phone: 231-539-7700

Other Area AWOS: KMGN - KSLH - KMCD - KCVX

TAF KPLN 181132Z 1812/1912 12014G28KT 1 1/2SM -SN BLSN OVC017 FM181400 12015G27KT 1SM -SN BLSN OVC015 FM181600 12013G25KT 3/4SM -SN OVC009 FM182100 08006KT 3/4SM -SN OVC007 FM190100 01009KT 2SM -SN OVC009 FM190300 36009KT 3SM -SN OVC011